Trans Oceanic — 3FOD2 — position and weather

sailwx.info

Track history (hours):
 
Tides and Currents Weather Stations Pressure Air Temp Water Temp Dewpoint Dewpoint Depression Visibility Wind Speed Wind Dir Waves Ship Positions

Trans Oceanic

Last reported at 2018-Jun-01 15:09 UTC. Time now 2018-Jun-25 00:30 UTC.
Position S 32°50' E 032°43'.
Warning: this ship's position is 23 days out of date.

Length 190 m; draft 10.7 m.

Type: Cargo ship. MMSI: 373489000.

Date/timePositionNaut miles runAvg speedWind from/ knotsBaromVisibWave heightAir tempDewpointWater temp
2018-Jun-01 15:09S 32°50' E 032°43'212.1
2018-Jun-01 15:00S 32°51' E 032°41'611.9
2018-Jun-01 14:30S 32°54' E 032°35'612.4
2018-Jun-01 14:00S 32°56' E 032°28'713.0
2018-Jun-01 13:31S 32°59' E 032°21'612.2
2018-Jun-01 13:01S 33°02' E 032°15'611.6
2018-Jun-01 12:30S 33°04' E 032°08'611.8
2018-Jun-01 12:01S 33°07' E 032°02'611.7
2018-Jun-01 11:30S 33°09' E 031°56'611.8
2018-Jun-01 11:01S 33°11' E 031°49'611.7
2018-Jun-01 10:31S 33°13' E 031°42'611.9
2018-Jun-01 10:01S 33°15' E 031°36'611.9
2018-Jun-01 09:30S 33°17' E 031°29'611.9
2018-Jun-01 08:59S 33°19' E 031°22'612.0
2018-Jun-01 08:31S 33°21' E 031°15'611.7
2018-Jun-01 08:01S 33°23' E 031°09'611.4
2018-Jun-01 07:31S 33°25' E 031°02'611.2
2018-Jun-01 07:00S 33°27' E 030°56'  
2018-May-29 23:20S 34°45' E 019°01'511.8
2018-May-29 22:57S 34°42' E 018°56'611.7
2018-May-29 22:28S 34°40' E 018°50'511.8
2018-May-29 22:01S 34°37' E 018°44'611.8
2018-May-29 21:30S 34°34' E 018°38'612.2
2018-May-29 21:01S 34°31' E 018°31'612.1
2018-May-29 20:30S 34°28' E 018°25'611.9
2018-May-29 20:01S 34°26' E 018°19'610.8
2018-May-29 19:26S 34°21' E 018°14'511.3
2018-May-29 19:01S 34°16' E 018°12'611.0
2018-May-29 18:30S 34°11' E 018°10'511.0
2018-May-29 18:00S 34°06' E 018°08'611.0
2018-May-29 17:30S 34°00' E 018°06'610.9
2018-May-29 16:57S 33°55' E 018°04'611.1
2018-May-29 16:24S 33°49' E 018°02'511.2
2018-May-29 15:59S 33°44' E 018°00'1211.3
2018-May-29 14:52S 33°32' E 017°55'511.7
2018-May-29 14:28S 33°28' E 017°54'24 9.4
2018-May-29 11:56S 33°04' E 017°55'  
Track history (hours):
 
Tides and Currents Weather Stations Pressure Air Temp Water Temp Dewpoint Dewpoint Depression Visibility Wind Speed Wind Dir Waves Ship Positions

Trans Oceanic

Last reported at 2018-Jun-01 15:09 UTC. Time now 2018-Jun-25 00:30 UTC.
Position S 32°50' E 032°43'.
Warning: this ship's position is 23 days out of date.

Length 190 m; draft 10.7 m.

Type: Cargo ship. MMSI: 373489000.

Date/timePositionNaut miles runAvg speedWind from/ knotsBaromVisibWave heightAir tempDewpointWater temp
2018-Jun-01 15:09S 32°50' E 032°43'212.1
2018-Jun-01 15:00S 32°51' E 032°41'611.9
2018-Jun-01 14:30S 32°54' E 032°35'612.4
2018-Jun-01 14:00S 32°56' E 032°28'713.0
2018-Jun-01 13:31S 32°59' E 032°21'612.2
2018-Jun-01 13:01S 33°02' E 032°15'611.6
2018-Jun-01 12:30S 33°04' E 032°08'611.8
2018-Jun-01 12:01S 33°07' E 032°02'611.7
2018-Jun-01 11:30S 33°09' E 031°56'611.8
2018-Jun-01 11:01S 33°11' E 031°49'611.7
2018-Jun-01 10:31S 33°13' E 031°42'611.9
2018-Jun-01 10:01S 33°15' E 031°36'611.9
2018-Jun-01 09:30S 33°17' E 031°29'611.9
2018-Jun-01 08:59S 33°19' E 031°22'612.0
2018-Jun-01 08:31S 33°21' E 031°15'611.7
2018-Jun-01 08:01S 33°23' E 031°09'611.4
2018-Jun-01 07:31S 33°25' E 031°02'611.2
2018-Jun-01 07:00S 33°27' E 030°56'  
2018-May-29 23:20S 34°45' E 019°01'511.8
2018-May-29 22:57S 34°42' E 018°56'611.7
2018-May-29 22:28S 34°40' E 018°50'511.8
2018-May-29 22:01S 34°37' E 018°44'611.8
2018-May-29 21:30S 34°34' E 018°38'612.2
2018-May-29 21:01S 34°31' E 018°31'612.1
2018-May-29 20:30S 34°28' E 018°25'611.9
2018-May-29 20:01S 34°26' E 018°19'610.8
2018-May-29 19:26S 34°21' E 018°14'511.3
2018-May-29 19:01S 34°16' E 018°12'611.0
2018-May-29 18:30S 34°11' E 018°10'511.0
2018-May-29 18:00S 34°06' E 018°08'611.0
2018-May-29 17:30S 34°00' E 018°06'610.9
2018-May-29 16:57S 33°55' E 018°04'611.1
2018-May-29 16:24S 33°49' E 018°02'511.2
2018-May-29 15:59S 33°44' E 018°00'1211.3
2018-May-29 14:52S 33°32' E 017°55'511.7
2018-May-29 14:28S 33°28' E 017°54'24 9.4
2018-May-29 11:56S 33°04' E 017°55'  

Dump ship's entire track history